createdAt,value
2019-03-01T00:01:15.164Z,13.50
2019-03-01T00:03:43.371Z,13.50
2019-03-01T00:06:37.326Z,13.50
2019-03-01T00:09:37.959Z,13.50
2019-03-01T00:12:15.025Z,13.50
2019-03-01T00:14:48.532Z,13.60
2019-03-01T00:17:28.684Z,13.70
2019-03-01T00:20:16.410Z,13.70
2019-03-01T00:23:10.224Z,13.70
2019-03-01T00:25:53.411Z,13.70
2019-03-01T00:28:24.166Z,13.50
2019-03-01T00:30:56.727Z,13.50
2019-03-01T00:33:46.219Z,13.50
2019-03-01T00:36:43.309Z,13.50
2019-03-01T00:39:32.140Z,13.50
2019-03-01T00:42:25.921Z,13.50
2019-03-01T00:44:53.296Z,13.60
2019-03-01T00:47:20.385Z,13.50
2019-03-01T00:49:47.595Z,13.40
2019-03-01T00:52:14.930Z,13.40
2019-03-01T00:54:43.327Z,13.40
2019-03-01T00:57:10.634Z,13.40
2019-03-01T00:59:37.567Z,13.40
2019-03-01T01:02:04.659Z,13.50
2019-03-01T01:04:32.935Z,13.50
2019-03-01T01:07:00.611Z,13.60
2019-03-01T01:09:27.865Z,13.60
2019-03-01T01:11:55.008Z,13.50
2019-03-01T01:14:22.323Z,13.40
2019-03-01T01:16:49.618Z,13.40
2019-03-01T01:19:18.107Z,13.50
2019-03-01T01:21:45.310Z,13.50
2019-03-01T01:24:13.273Z,13.50
2019-03-01T01:26:41.911Z,13.50
2019-03-01T01:29:09.045Z,13.60
2019-03-01T01:31:36.265Z,13.60
2019-03-01T01:34:03.490Z,13.60
2019-03-01T01:36:30.694Z,13.50
2019-03-01T01:38:57.688Z,13.60
2019-03-01T01:41:24.678Z,13.60
2019-03-01T01:43:51.710Z,13.40
2019-03-01T01:46:18.692Z,13.40
2019-03-01T01:48:45.747Z,13.40
2019-03-01T01:51:12.859Z,13.40
2019-03-01T01:53:40.988Z,13.40
2019-03-01T01:56:07.882Z,13.30
2019-03-01T01:58:38.510Z,13.30
2019-03-01T02:01:05.841Z,13.40
2019-03-01T02:03:33.207Z,13.40
2019-03-01T02:06:01.827Z,13.30
2019-03-01T02:08:29.579Z,13.40
2019-03-01T02:10:56.875Z,13.40
2019-03-01T02:13:25.393Z,13.40
2019-03-01T02:15:52.937Z,13.30
2019-03-01T02:18:20.532Z,13.30
2019-03-01T02:20:47.627Z,13.30
2019-03-01T02:23:16.412Z,13.20
2019-03-01T02:25:44.210Z,13.20
2019-03-01T02:28:12.969Z,13.30
2019-03-01T02:30:44.184Z,13.30
2019-03-01T02:33:12.323Z,13.30
2019-03-01T02:35:41.431Z,13.20
2019-03-01T02:38:08.724Z,13.10
2019-03-01T02:40:36.359Z,12.70
2019-03-01T02:43:04.593Z,12.80
2019-03-01T02:45:33.437Z,12.90
2019-03-01T02:48:00.407Z,12.90
2019-03-01T02:50:28.497Z,12.90
2019-03-01T02:52:55.340Z,12.90
2019-03-01T02:55:23.009Z,13.00
2019-03-01T02:57:49.924Z,13.00
2019-03-01T03:00:22.827Z,13.00
2019-03-01T03:02:50.435Z,13.00
2019-03-01T03:05:17.756Z,12.90
2019-03-01T03:07:59.114Z,13.00
2019-03-01T03:10:26.272Z,12.90
2019-03-01T03:12:56.430Z,13.00
2019-03-01T03:15:38.085Z,13.00
2019-03-01T03:18:06.572Z,12.90
2019-03-01T03:20:33.530Z,12.90
2019-03-01T03:23:00.730Z,13.00
2019-03-01T03:25:27.763Z,13.10
2019-03-01T03:27:54.850Z,13.00
2019-03-01T03:30:22.540Z,13.00
2019-03-01T03:32:51.212Z,13.00
2019-03-01T03:35:19.367Z,12.90
2019-03-01T03:37:46.221Z,12.70
2019-03-01T03:40:14.229Z,12.80
2019-03-01T03:42:41.531Z,12.90
2019-03-01T03:45:15.173Z,12.90
2019-03-01T03:47:48.335Z,12.80
2019-03-01T03:50:16.488Z,12.80
2019-03-01T03:52:44.574Z,13.00
2019-03-01T03:55:13.853Z,12.90
2019-03-01T03:57:42.522Z,12.90
2019-03-01T04:00:14.139Z,13.00
2019-03-01T04:02:43.127Z,13.00
2019-03-01T04:05:10.380Z,13.00
2019-03-01T04:07:38.781Z,13.00
2019-03-01T04:10:08.713Z,12.90
2019-03-01T04:12:36.009Z,12.80
2019-03-01T04:15:06.304Z,12.70
2019-03-01T04:17:33.496Z,12.90
2019-03-01T04:20:00.667Z,12.80
2019-03-01T04:22:28.383Z,12.80
2019-03-01T04:24:55.303Z,12.80
2019-03-01T04:27:22.453Z,12.70
2019-03-01T04:29:49.723Z,12.40
2019-03-01T04:32:17.112Z,12.40
2019-03-01T04:34:44.134Z,12.30
2019-03-01T04:37:10.989Z,12.20
2019-03-01T04:39:38.420Z,12.20
2019-03-01T04:42:05.617Z,12.00
2019-03-01T04:44:32.752Z,12.10
2019-03-01T04:47:00.190Z,11.80
2019-03-01T04:49:27.334Z,11.60
2019-03-01T04:51:54.593Z,11.50
2019-03-01T04:54:21.614Z,11.30
2019-03-01T04:56:48.859Z,11.30
2019-03-01T04:59:15.726Z,11.20
2019-03-01T05:01:42.859Z,11.30
2019-03-01T05:04:12.123Z,11.30
2019-03-01T05:06:38.922Z,11.20
2019-03-01T05:09:06.482Z,11.00
2019-03-01T05:11:34.949Z,11.00
2019-03-01T05:14:03.427Z,11.10
2019-03-01T05:16:30.284Z,11.20
2019-03-01T05:18:57.315Z,10.90
2019-03-01T05:21:24.445Z,10.90
2019-03-01T05:23:51.746Z,10.80
2019-03-01T05:26:20.560Z,10.80
2019-03-01T05:28:47.661Z,10.70
2019-03-01T05:31:15.120Z,10.60
2019-03-01T05:33:43.779Z,10.50
2019-03-01T05:36:10.558Z,10.50
2019-03-01T05:38:37.808Z,10.40
2019-03-01T05:41:06.162Z,10.40
2019-03-01T05:43:33.453Z,10.50
2019-03-01T05:46:00.968Z,10.40
2019-03-01T05:48:30.978Z,10.30
2019-03-01T05:50:57.970Z,10.30
2019-03-01T05:53:26.852Z,10.30
2019-03-01T05:55:54.137Z,10.30
2019-03-01T05:58:32.194Z,10.30
2019-03-01T06:01:19.531Z,10.30
2019-03-01T06:03:58.969Z,10.30
2019-03-01T06:06:45.246Z,10.20
2019-03-01T06:09:25.621Z,10.10
2019-03-01T06:12:08.676Z,10.20
2019-03-01T06:14:55.338Z,10.30
2019-03-01T06:17:39.667Z,10.10
2019-03-01T06:20:25.896Z,9.80
2019-03-01T06:23:15.505Z,9.90
2019-03-01T06:26:09.619Z,9.90
2019-03-01T06:28:40.738Z,9.90
2019-03-01T06:31:34.498Z,10.00
2019-03-01T06:34:32.377Z,9.90
2019-03-01T06:37:30.048Z,9.90
2019-03-01T06:40:29.827Z,10.00
2019-03-01T06:43:16.792Z,10.10
2019-03-01T06:45:50.757Z,10.00
2019-03-01T06:48:32.125Z,9.90
2019-03-01T06:51:01.597Z,9.80
2019-03-01T06:53:29.143Z,9.80
2019-03-01T06:55:56.521Z,9.90
2019-03-01T06:58:23.733Z,10.00
2019-03-01T07:00:52.789Z,10.00
2019-03-01T07:03:21.281Z,10.00
2019-03-01T07:06:03.636Z,10.10
2019-03-01T07:08:32.730Z,10.20
2019-03-01T07:11:04.232Z,9.90
2019-03-01T07:13:32.471Z,9.80
2019-03-01T07:16:01.505Z,10.00
2019-03-01T07:18:28.623Z,10.00
2019-03-01T07:20:55.515Z,10.00
2019-03-01T07:23:24.494Z,9.90
2019-03-01T07:25:51.637Z,10.00
2019-03-01T07:28:19.053Z,10.10
2019-03-01T07:30:46.284Z,10.20
2019-03-01T07:33:15.603Z,10.10
2019-03-01T07:35:43.013Z,10.10
2019-03-01T07:38:11.845Z,10.20
2019-03-01T07:40:40.843Z,10.20
2019-03-01T07:43:12.359Z,10.20
2019-03-01T07:45:43.200Z,10.20
2019-03-01T07:48:10.603Z,10.00
2019-03-01T07:50:37.772Z,9.90
2019-03-01T07:53:05.653Z,10.00
2019-03-01T07:55:32.896Z,9.90
2019-03-01T07:58:02.869Z,10.00
2019-03-01T08:00:31.095Z,9.90
2019-03-01T08:02:58.174Z,9.90
2019-03-01T08:05:25.457Z,9.90
2019-03-01T08:07:56.054Z,9.90
2019-03-01T08:10:23.469Z,9.60
2019-03-01T08:12:50.599Z,9.60
2019-03-01T08:15:17.691Z,9.40
2019-03-01T08:17:44.813Z,9.50
2019-03-01T08:20:16.739Z,9.50
2019-03-01T08:22:48.638Z,9.50
2019-03-01T08:25:14.539Z,9.40
2019-03-01T08:27:46.436Z,9.50
2019-03-01T08:30:15.025Z,9.50
2019-03-01T08:32:42.498Z,9.40
2019-03-01T08:35:13.220Z,9.40
2019-03-01T08:37:40.406Z,9.30
2019-03-01T08:40:15.679Z,9.50
2019-03-01T08:42:44.083Z,9.50
2019-03-01T08:45:18.599Z,9.40
2019-03-01T08:47:48.518Z,9.50
2019-03-01T08:50:16.743Z,9.60
2019-03-01T08:52:44.755Z,9.70
2019-03-01T08:55:15.513Z,9.60
2019-03-01T08:57:44.616Z,9.50
2019-03-01T09:00:18.420Z,9.60
2019-03-01T09:02:45.883Z,9.60
2019-03-01T09:05:13.104Z,9.70
2019-03-01T09:07:40.600Z,9.70
2019-03-01T09:10:10.482Z,9.70
2019-03-01T09:12:37.786Z,9.80
2019-03-01T09:15:08.335Z,9.70
2019-03-01T09:17:35.343Z,9.90
2019-03-01T09:20:05.920Z,10.00
2019-03-01T09:22:33.738Z,10.10
2019-03-01T09:25:07.488Z,10.10
2019-03-01T09:27:35.547Z,10.10
2019-03-01T09:30:06.344Z,10.10
2019-03-01T09:32:33.801Z,10.10
2019-03-01T09:35:23.999Z,10.10
2019-03-01T09:37:53.785Z,10.10
2019-03-01T09:40:25.686Z,10.20
2019-03-01T09:42:57.946Z,10.00
2019-03-01T09:45:36.272Z,9.90
2019-03-01T09:48:11.631Z,9.90
2019-03-01T09:50:49.799Z,10.00
2019-03-01T09:53:38.674Z,10.10
2019-03-01T09:56:15.341Z,10.20
2019-03-01T09:59:02.772Z,10.20
2019-03-01T10:01:30.231Z,10.40
2019-03-01T10:03:58.604Z,10.50
2019-03-01T10:06:26.453Z,10.50
2019-03-01T10:08:55.461Z,10.30
2019-03-01T10:11:22.962Z,10.30
2019-03-01T10:13:50.706Z,10.10
2019-03-01T10:16:17.736Z,10.20
2019-03-01T10:18:45.073Z,10.30
2019-03-01T10:21:13.471Z,10.20
2019-03-01T10:23:40.782Z,10.20
2019-03-01T10:26:08.749Z,10.20
2019-03-01T10:28:36.543Z,10.20
2019-03-01T10:31:03.975Z,10.30
2019-03-01T10:33:31.444Z,10.20
2019-03-01T10:35:59.099Z,10.30
2019-03-01T10:38:26.320Z,10.60
2019-03-01T10:40:53.666Z,10.60
2019-03-01T10:43:20.902Z,10.40
2019-03-01T10:45:49.964Z,10.30
2019-03-01T10:48:18.130Z,10.40
2019-03-01T10:50:46.190Z,10.70
2019-03-01T10:53:13.712Z,10.80
2019-03-01T10:55:42.770Z,10.70
2019-03-01T10:58:10.010Z,10.70
2019-03-01T11:00:37.460Z,10.50
2019-03-01T11:03:04.840Z,10.50
2019-03-01T11:05:33.110Z,10.60
2019-03-01T11:08:00.447Z,10.40
2019-03-01T11:10:33.533Z,10.50
2019-03-01T11:13:00.890Z,10.70
2019-03-01T11:15:28.650Z,10.60
2019-03-01T11:17:57.533Z,10.80
2019-03-01T11:20:27.369Z,10.90
2019-03-01T11:22:55.958Z,11.00
2019-03-01T11:25:28.406Z,11.00
2019-03-01T11:28:02.824Z,11.10
2019-03-01T11:30:36.120Z,11.10
2019-03-01T11:33:08.474Z,10.80
2019-03-01T11:35:38.816Z,11.10
2019-03-01T11:38:06.459Z,11.10
2019-03-01T11:40:34.956Z,11.10
2019-03-01T11:43:02.642Z,11.30
2019-03-01T11:45:29.975Z,11.10
2019-03-01T11:47:58.875Z,11.00
2019-03-01T11:50:27.872Z,11.00
2019-03-01T11:52:56.256Z,11.20
2019-03-01T11:55:25.672Z,11.10
2019-03-01T11:57:53.846Z,10.90
2019-03-01T12:00:25.279Z,10.60
2019-03-01T12:02:53.236Z,10.60
2019-03-01T12:05:23.952Z,10.80
2019-03-01T12:07:54.478Z,10.60
2019-03-01T12:10:28.832Z,10.60
2019-03-01T12:12:56.595Z,10.70
2019-03-01T12:15:24.190Z,10.90
2019-03-01T12:17:51.581Z,11.00
2019-03-01T12:20:21.847Z,11.20
2019-03-01T12:22:49.294Z,11.10
2019-03-01T12:25:19.407Z,11.20
2019-03-01T12:27:46.591Z,10.80
2019-03-01T12:30:17.781Z,10.80
2019-03-01T12:32:45.590Z,11.00
2019-03-01T12:35:16.820Z,10.80
2019-03-01T12:37:44.372Z,10.80
2019-03-01T12:40:15.217Z,10.60
2019-03-01T12:42:50.728Z,10.90
2019-03-01T12:45:20.054Z,11.00
2019-03-01T12:47:51.089Z,11.10
2019-03-01T12:50:22.241Z,11.00
2019-03-01T12:52:51.767Z,11.00
2019-03-01T12:55:22.756Z,11.00
2019-03-01T12:57:51.094Z,10.70
2019-03-01T13:00:31.910Z,10.70
2019-03-01T13:02:59.118Z,10.80
2019-03-01T13:05:29.418Z,10.90
2019-03-01T13:07:57.927Z,10.90
2019-03-01T13:10:40.304Z,11.00
2019-03-01T13:13:08.340Z,11.10
2019-03-01T13:15:35.677Z,11.20
2019-03-01T13:18:04.115Z,10.80
2019-03-01T13:20:33.862Z,10.70
2019-03-01T13:23:04.979Z,10.70
2019-03-01T13:25:35.004Z,10.90
2019-03-01T13:28:02.277Z,11.10
2019-03-01T13:30:32.658Z,11.20
2019-03-01T13:33:02.576Z,11.00
2019-03-01T13:35:30.270Z,10.90
2019-03-01T13:37:57.530Z,11.00
2019-03-01T13:40:25.431Z,10.80
2019-03-01T13:42:53.203Z,10.70
2019-03-01T13:45:22.825Z,10.70
2019-03-01T13:47:50.271Z,11.00
2019-03-01T13:50:19.725Z,11.00
2019-03-01T13:52:47.129Z,10.80
2019-03-01T13:55:14.962Z,11.00
2019-03-01T13:57:46.116Z,11.20
2019-03-01T14:00:19.458Z,11.40
2019-03-01T14:02:49.860Z,11.50
2019-03-01T14:05:17.480Z,11.50
2019-03-01T14:07:48.173Z,11.30
2019-03-01T14:10:22.914Z,11.30
2019-03-01T14:12:50.113Z,11.20
2019-03-01T14:15:18.655Z,10.80
2019-03-01T14:17:45.926Z,10.70
2019-03-01T14:20:21.037Z,11.00
2019-03-01T14:22:49.245Z,11.00
2019-03-01T14:25:17.768Z,10.90
2019-03-01T14:27:46.856Z,10.90
2019-03-01T14:30:16.772Z,10.80
2019-03-01T14:32:44.201Z,11.00
2019-03-01T14:35:12.466Z,11.00
2019-03-01T14:37:39.970Z,11.00
2019-03-01T14:40:10.129Z,10.80
2019-03-01T14:42:38.516Z,10.90
2019-03-01T14:45:10.626Z,10.80
2019-03-01T14:47:38.317Z,10.90
2019-03-01T14:50:12.015Z,11.10
2019-03-01T14:52:41.017Z,11.00
2019-03-01T14:55:15.603Z,11.10
2019-03-01T14:57:47.483Z,11.10
2019-03-01T15:00:21.325Z,11.20
2019-03-01T15:02:55.988Z,10.90
2019-03-01T15:05:23.418Z,10.80
2019-03-01T15:07:50.610Z,10.90
2019-03-01T15:10:18.332Z,11.10
2019-03-01T15:12:45.469Z,11.20
2019-03-01T15:15:13.279Z,11.20
2019-03-01T15:17:40.665Z,11.20
2019-03-01T15:20:10.883Z,11.30
2019-03-01T15:22:38.163Z,11.30
2019-03-01T15:25:08.106Z,11.20
2019-03-01T15:27:39.857Z,11.10
2019-03-01T15:30:11.981Z,11.10
2019-03-01T15:32:40.149Z,11.10
2019-03-01T15:35:08.033Z,11.10
2019-03-01T15:37:36.133Z,11.10
2019-03-01T15:40:07.393Z,11.00
2019-03-01T15:42:34.798Z,11.00
2019-03-01T15:45:06.927Z,11.30
2019-03-01T15:47:34.063Z,11.40
2019-03-01T15:50:06.253Z,11.30
2019-03-01T15:52:35.383Z,11.40
2019-03-01T15:55:07.857Z,11.40
2019-03-01T15:57:37.587Z,11.50
2019-03-01T16:00:08.531Z,11.60
2019-03-01T16:02:46.360Z,11.60
2019-03-01T16:05:15.285Z,11.60
2019-03-01T16:07:42.411Z,11.50
2019-03-01T16:10:12.233Z,11.40
2019-03-01T16:12:39.784Z,11.40
2019-03-01T16:15:10.251Z,11.60
2019-03-01T16:17:37.971Z,11.70
2019-03-01T16:20:08.761Z,11.60
2019-03-01T16:22:36.338Z,11.70
2019-03-01T16:25:08.593Z,11.90
2019-03-01T16:27:38.484Z,11.60
2019-03-01T16:30:09.137Z,11.70
2019-03-01T16:32:36.617Z,11.80
2019-03-01T16:35:06.177Z,11.80
2019-03-01T16:37:33.699Z,11.80
2019-03-01T16:40:01.454Z,11.80
2019-03-01T16:42:38.031Z,11.80
2019-03-01T16:45:00.633Z,11.80
2019-03-01T16:47:29.385Z,11.60
2019-03-01T16:49:58.979Z,11.50
2019-03-01T16:52:30.267Z,11.40
2019-03-01T16:54:58.135Z,11.50
2019-03-01T16:57:26.352Z,11.50
2019-03-01T16:59:54.655Z,11.40
2019-03-01T17:02:25.635Z,11.40
2019-03-01T17:04:53.804Z,11.30
2019-03-01T17:07:25.111Z,11.30
2019-03-01T17:09:54.995Z,11.40
2019-03-01T17:12:23.110Z,11.40
2019-03-01T17:14:50.454Z,11.50
2019-03-01T17:17:19.823Z,11.50
2019-03-01T17:19:47.242Z,11.60
2019-03-01T17:22:15.113Z,11.60
2019-03-01T17:24:43.438Z,11.60
2019-03-01T17:27:11.051Z,11.50
2019-03-01T17:29:39.032Z,11.60
2019-03-01T17:32:09.589Z,11.50
2019-03-01T17:34:37.317Z,11.20
2019-03-01T17:37:06.569Z,11.10
2019-03-01T17:39:33.852Z,11.20
2019-03-01T17:42:03.055Z,11.40
2019-03-01T17:44:30.899Z,11.30
2019-03-01T17:47:01.081Z,11.30
2019-03-01T17:49:33.072Z,11.40
2019-03-01T17:52:01.556Z,11.40
2019-03-01T17:54:29.254Z,11.50
2019-03-01T17:56:57.218Z,11.50
2019-03-01T17:59:25.475Z,11.60
2019-03-01T18:01:53.133Z,11.70
2019-03-01T18:04:20.521Z,11.80
2019-03-01T18:06:51.499Z,11.90
2019-03-01T18:09:19.517Z,11.90
2019-03-01T18:11:49.417Z,11.90
2019-03-01T18:14:16.799Z,12.00
2019-03-01T18:16:44.253Z,12.00
2019-03-01T18:19:11.383Z,11.80
2019-03-01T18:21:38.367Z,11.80
2019-03-01T18:24:05.791Z,11.80
2019-03-01T18:26:32.800Z,11.80
2019-03-01T18:29:04.780Z,11.90
2019-03-01T18:31:34.754Z,11.80
2019-03-01T18:34:04.168Z,11.90
2019-03-01T18:36:32.393Z,11.80
2019-03-01T18:39:03.777Z,11.70
2019-03-01T18:41:35.001Z,11.70
2019-03-01T18:44:03.461Z,11.80
2019-03-01T18:46:32.566Z,11.90
2019-03-01T18:48:59.910Z,11.80
2019-03-01T18:51:27.278Z,12.00
2019-03-01T18:53:54.385Z,12.30
2019-03-01T18:56:25.042Z,12.40
2019-03-01T18:58:54.848Z,12.40
2019-03-01T19:01:26.753Z,12.50
2019-03-01T19:04:05.059Z,12.40
2019-03-01T19:06:34.569Z,12.20
2019-03-01T19:09:05.468Z,12.30
2019-03-01T19:11:37.937Z,12.30
2019-03-01T19:14:08.072Z,12.30
2019-03-01T19:16:36.160Z,12.40
2019-03-01T19:19:03.640Z,12.50
2019-03-01T19:21:33.418Z,12.70
2019-03-01T19:24:04.816Z,12.70
2019-03-01T19:26:38.756Z,12.70
2019-03-01T19:29:07.860Z,12.60
2019-03-01T19:31:36.812Z,12.70
2019-03-01T19:34:26.529Z,12.60
2019-03-01T19:36:57.771Z,12.60
2019-03-01T19:39:32.585Z,12.70
2019-03-01T19:42:11.170Z,12.60
2019-03-01T19:44:41.379Z,12.50
2019-03-01T19:47:12.975Z,12.40
2019-03-01T19:49:49.815Z,12.60
2019-03-01T19:52:22.666Z,12.60
2019-03-01T19:54:50.914Z,12.60
2019-03-01T19:57:18.730Z,12.50
2019-03-01T19:59:49.632Z,12.50
2019-03-01T20:02:17.519Z,12.40
2019-03-01T20:04:45.223Z,12.40
2019-03-01T20:07:16.011Z,12.50
2019-03-01T20:09:44.424Z,12.60
2019-03-01T20:12:13.604Z,12.50
2019-03-01T20:14:41.990Z,12.50
2019-03-01T20:17:10.032Z,12.30
2019-03-01T20:19:37.668Z,12.40
2019-03-01T20:22:04.981Z,12.40
2019-03-01T20:24:32.060Z,12.50
2019-03-01T20:26:59.924Z,12.60
2019-03-01T20:29:29.850Z,12.60
2019-03-01T20:31:57.434Z,12.50
2019-03-01T20:34:25.759Z,12.40
2019-03-01T20:36:53.786Z,12.40
2019-03-01T20:39:23.317Z,12.30
2019-03-01T20:41:51.976Z,12.40
2019-03-01T20:44:20.167Z,12.40
2019-03-01T20:46:47.788Z,12.30
2019-03-01T20:49:15.342Z,12.30
2019-03-01T20:51:43.233Z,12.10
2019-03-01T20:54:10.367Z,12.20
2019-03-01T20:56:37.735Z,12.20
2019-03-01T20:59:06.304Z,12.20
2019-03-01T21:01:38.399Z,12.20
2019-03-01T21:04:10.392Z,12.10
2019-03-01T21:06:40.552Z,12.20
2019-03-01T21:09:07.363Z,12.30
2019-03-01T21:11:37.020Z,12.30
2019-03-01T21:14:04.335Z,12.30
2019-03-01T21:16:31.393Z,12.20
2019-03-01T21:18:59.876Z,11.90
2019-03-01T21:21:28.847Z,11.90
2019-03-01T21:23:56.559Z,11.90
2019-03-01T21:26:24.237Z,12.00
2019-03-01T21:28:51.719Z,12.10
2019-03-01T21:31:19.537Z,12.20
2019-03-01T21:33:46.550Z,12.20
2019-03-01T21:36:13.742Z,12.20
2019-03-01T21:38:45.686Z,12.10
2019-03-01T21:41:12.115Z,12.10
2019-03-01T21:43:39.767Z,12.10
2019-03-01T21:46:08.541Z,12.20
2019-03-01T21:48:36.228Z,12.20
2019-03-01T21:51:03.216Z,12.00
2019-03-01T21:53:30.815Z,11.90
2019-03-01T21:56:00.553Z,11.90
2019-03-01T21:58:28.966Z,11.80
2019-03-01T22:00:56.008Z,11.90
2019-03-01T22:03:24.860Z,12.00
2019-03-01T22:05:53.784Z,11.90
2019-03-01T22:08:22.575Z,11.90
2019-03-01T22:10:49.748Z,12.00
2019-03-01T22:13:16.918Z,12.00
2019-03-01T22:15:44.367Z,12.00
2019-03-01T22:18:13.144Z,12.00
2019-03-01T22:20:41.512Z,11.90
2019-03-01T22:23:15.667Z,11.70
2019-03-01T22:25:43.149Z,11.70
2019-03-01T22:28:10.956Z,11.70
2019-03-01T22:30:38.347Z,11.70
2019-03-01T22:33:05.938Z,11.80
2019-03-01T22:35:33.332Z,11.80
2019-03-01T22:38:04.755Z,11.90
2019-03-01T22:40:33.342Z,11.90
2019-03-01T22:43:00.706Z,11.90
2019-03-01T22:45:28.117Z,11.80
2019-03-01T22:47:57.630Z,11.80
2019-03-01T22:50:26.422Z,11.80
2019-03-01T22:52:54.099Z,11.90
2019-03-01T22:55:21.978Z,12.00
2019-03-01T22:57:50.445Z,12.10
2019-03-01T23:00:49.268Z,11.90
2019-03-01T23:03:20.214Z,11.90
2019-03-01T23:05:47.610Z,11.80
2019-03-01T23:08:16.393Z,11.80
2019-03-01T23:10:46.024Z,11.70
2019-03-01T23:13:17.141Z,11.70
2019-03-01T23:15:46.819Z,11.60
2019-03-01T23:18:14.310Z,11.80
2019-03-01T23:20:41.719Z,11.80
2019-03-01T23:23:08.630Z,11.80
2019-03-01T23:25:35.804Z,11.70
2019-03-01T23:28:03.969Z,11.70
2019-03-01T23:30:34.553Z,11.50
2019-03-01T23:33:01.548Z,11.60
2019-03-01T23:35:30.450Z,11.70
2019-03-01T23:37:57.978Z,11.80
2019-03-01T23:40:25.041Z,11.90
2019-03-01T23:42:53.409Z,11.80
2019-03-01T23:45:22.859Z,11.70
2019-03-01T23:47:50.060Z,11.60
2019-03-01T23:50:17.267Z,11.50
2019-03-01T23:52:44.552Z,11.60
2019-03-01T23:55:15.598Z,11.70
2019-03-01T23:57:42.090Z,11.70
